Time;durP1;ratioP1;P1;durP2;ratioP2;P2;SDS_P1;SDS_P2;PMS_P1;PMS_P2;Temp;Humidity;BMP_temperature;BMP_pressure;BME280_temperature;BME280_humidity;BME280_pressure;Samples;Min_cycle;Max_cycle;Signal;HPM_P1;HPM_P2
2023/03/26 00:02:15;;;;;;;17.05;2.53;;;;;;;;;;6270028;22;20028;-83
2023/03/26 00:04:41;;;;;;;19.23;3.38;;;;;;;;;;6268487;22;20024;-82
2023/03/26 00:07:09;;;;;;;20.05;2.72;;;;;;;;;;6242514;22;20028;-82
2023/03/26 00:09:35;;;;;;;19.27;2.88;;;;;;;;;;6270610;22;20032;-83
2023/03/26 00:12:02;;;;;;;17.83;2.97;;;;;;;;;;6269465;22;20024;-82
2023/03/26 00:14:29;;;;;;;16.45;2.85;;;;;;;;;;6269285;22;20020;-81
2023/03/26 00:16:55;;;;;;;14.45;2.65;;;;;;;;;;6268908;22;20020;-84
2023/03/26 00:19:21;;;;;;;19.08;3.13;;;;;;;;;;6270187;22;20372;-86
2023/03/26 00:21:48;;;;;;;19.10;2.83;;;;;;;;;;6269392;22;20034;-82
2023/03/26 00:24:14;;;;;;;22.98;3.00;;;;;;;;;;6268337;22;20024;-83
2023/03/26 00:26:41;;;;;;;21.55;2.97;;;;;;;;;;6269691;22;20028;-83
2023/03/26 00:29:09;;;;;;;19.75;3.38;;;;;;;;;;6268144;22;20062;-82
2023/03/26 00:31:38;;;;;;;23.83;4.00;;;;;;;;;;6270224;22;20024;-82
2023/03/26 00:34:05;;;;;;;19.15;3.80;;;;;;;;;;6241677;22;20028;-81
2023/03/26 00:36:34;;;;;;;24.50;3.03;;;;;;;;;;6268691;22;20032;-82
2023/03/26 00:39:04;;;;;;;20.33;3.05;;;;;;;;;;6242818;22;20052;-83
2023/03/26 00:41:30;;;;;;;22.83;3.45;;;;;;;;;;6270191;22;20110;-82
2023/03/26 00:43:57;;;;;;;18.23;3.30;;;;;;;;;;6269823;22;20937;-82
2023/03/26 00:46:24;;;;;;;24.38;3.55;;;;;;;;;;6269061;22;20066;-82
2023/03/26 00:48:51;;;;;;;35.47;3.90;;;;;;;;;;6268985;22;20807;-82
2023/03/26 00:51:19;;;;;;;23.05;3.90;;;;;;;;;;6269161;22;20024;-82
2023/03/26 00:53:46;;;;;;;18.80;3.15;;;;;;;;;;6241092;22;20461;-82
2023/03/26 00:56:13;;;;;;;28.20;4.63;;;;;;;;;;6268336;22;20082;-82
2023/03/26 00:58:40;;;;;;;21.48;3.30;;;;;;;;;;6269992;22;20028;-83
2023/03/26 01:01:12;;;;;;;25.65;3.10;;;;;;;;;;6242509;22;20063;-82
2023/03/26 01:03:39;;;;;;;27.38;3.80;;;;;;;;;;6268313;22;20030;-82
2023/03/26 01:06:11;;;;;;;25.90;3.70;;;;;;;;;;6269706;22;20123;-82
2023/03/26 01:08:41;;;;;;;32.00;3.70;;;;;;;;;;6269912;22;20038;-83
2023/03/26 01:11:12;;;;;;;29.80;4.43;;;;;;;;;;6243196;22;20024;-83
2023/03/26 01:13:41;;;;;;;25.55;3.67;;;;;;;;;;6269802;22;20028;-82
2023/03/26 01:16:18;;;;;;;42.47;4.30;;;;;;;;;;6269837;22;20066;-83
2023/03/26 01:18:45;;;;;;;36.42;4.50;;;;;;;;;;6269254;22;20103;-83
2023/03/26 01:21:13;;;;;;;30.73;4.10;;;;;;;;;;6269905;22;20051;-82
2023/03/26 01:23:47;;;;;;;33.78;4.07;;;;;;;;;;6241513;22;20024;-83
2023/03/26 01:26:22;;;;;;;28.73;4.53;;;;;;;;;;6269019;22;20028;-82
2023/03/26 01:28:50;;;;;;;31.23;4.50;;;;;;;;;;6270484;22;20038;-83
2023/03/26 01:31:24;;;;;;;32.55;4.35;;;;;;;;;;6269118;22;20094;-82
2023/03/26 01:33:57;;;;;;;40.00;4.60;;;;;;;;;;6270016;22;20023;-82
2023/03/26 01:36:31;;;;;;;22.73;4.38;;;;;;;;;;6241961;22;20025;-82
2023/03/26 01:39:08;;;;;;;21.48;3.70;;;;;;;;;;6269552;22;20103;-83
2023/03/26 01:41:46;;;;;;;35.17;4.60;;;;;;;;;;6271070;22;20024;-83
2023/03/26 01:44:18;;;;;;;30.27;4.82;;;;;;;;;;6267940;22;20035;-82
2023/03/26 01:46:45;;;;;;;27.38;4.40;;;;;;;;;;6269477;22;20031;-82
2023/03/26 01:49:14;;;;;;;31.48;4.68;;;;;;;;;;6267626;22;20599;-82
2023/03/26 01:51:41;;;;;;;44.33;5.60;;;;;;;;;;6269897;22;20020;-82
2023/03/26 01:54:11;;;;;;;38.42;4.75;;;;;;;;;;6240936;22;20065;-83
2023/03/26 01:56:40;;;;;;;30.30;4.22;;;;;;;;;;6242254;22;20036;-83
2023/03/26 01:59:23;;;;;;;43.90;4.68;;;;;;;;;;6269009;22;20074;-83
2023/03/26 02:01:58;;;;;;;33.42;4.97;;;;;;;;;;6241063;22;20028;-82
2023/03/26 02:04:30;;;;;;;42.17;5.40;;;;;;;;;;6240566;22;20028;-82
2023/03/26 02:07:27;;;;;;;36.42;5.50;;;;;;;;;;6269748;22;20532;-82
2023/03/26 02:09:57;;;;;;;39.00;4.43;;;;;;;;;;6237559;22;20058;-83
2023/03/26 02:12:24;;;;;;;27.90;4.63;;;;;;;;;;6267315;22;20059;-82
2023/03/26 02:14:51;;;;;;;38.85;4.65;;;;;;;;;;6240357;22;20028;-82
2023/03/26 02:17:18;;;;;;;44.95;5.15;;;;;;;;;;6269117;22;20032;-83
2023/03/26 02:19:44;;;;;;;38.17;4.82;;;;;;;;;;6241462;22;20523;-83
2023/03/26 02:22:14;;;;;;;44.78;6.05;;;;;;;;;;6269196;22;20465;-82
2023/03/26 02:24:41;;;;;;;36.45;5.85;;;;;;;;;;6241181;22;20028;-82
2023/03/26 02:27:11;;;;;;;41.13;5.50;;;;;;;;;;6254813;22;20116;-82
2023/03/26 02:29:38;;;;;;;45.65;4.90;;;;;;;;;;6268055;22;20035;-83
2023/03/26 02:32:05;;;;;;;40.95;5.47;;;;;;;;;;6266516;22;20024;-82
2023/03/26 02:34:32;;;;;;;36.80;5.85;;;;;;;;;;6267317;22;20028;-82
2023/03/26 02:36:58;;;;;;;33.72;4.95;;;;;;;;;;6268018;22;20119;-83
2023/03/26 02:39:25;;;;;;;51.50;6.40;;;;;;;;;;6267652;22;20461;-82
2023/03/26 02:41:51;;;;;;;42.63;5.95;;;;;;;;;;6269270;22;20024;-83
2023/03/26 02:44:18;;;;;;;38.28;6.43;;;;;;;;;;6267294;22;20032;-82
2023/03/26 02:46:44;;;;;;;35.40;5.75;;;;;;;;;;6267098;22;20024;-83
2023/03/26 02:49:11;;;;;;;36.95;6.38;;;;;;;;;;6265700;22;20021;-82
2023/03/26 02:51:37;;;;;;;41.95;7.07;;;;;;;;;;6269250;22;20791;-82
2023/03/26 02:54:03;;;;;;;43.92;7.28;;;;;;;;;;6268171;22;20031;-82
2023/03/26 02:56:30;;;;;;;33.38;6.35;;;;;;;;;;6268419;22;20028;-82
2023/03/26 02:58:56;;;;;;;49.08;7.00;;;;;;;;;;6267795;22;20028;-82
2023/03/26 03:01:23;;;;;;;40.97;7.13;;;;;;;;;;6267980;22;20042;-82
2023/03/26 03:03:49;;;;;;;39.70;6.28;;;;;;;;;;6267269;22;20028;-82
2023/03/26 03:06:17;;;;;;;43.55;6.22;;;;;;;;;;6268568;22;20027;-82
2023/03/26 03:08:47;;;;;;;46.33;6.75;;;;;;;;;;6266443;22;20024;-83
2023/03/26 03:11:14;;;;;;;41.65;6.45;;;;;;;;;;6266630;22;20020;-82
2023/03/26 03:13:41;;;;;;;45.25;6.55;;;;;;;;;;6267066;22;20082;-82
2023/03/26 03:16:08;;;;;;;43.75;6.75;;;;;;;;;;6268690;22;20094;-82
2023/03/26 03:18:34;;;;;;;36.33;6.40;;;;;;;;;;6269608;22;20027;-83
2023/03/26 03:21:01;;;;;;;41.03;7.53;;;;;;;;;;6269082;22;20782;-82
2023/03/26 03:23:28;;;;;;;46.78;6.75;;;;;;;;;;6267105;22;20024;-82
2023/03/26 03:25:55;;;;;;;36.80;7.43;;;;;;;;;;6269411;22;20055;-83
2023/03/26 03:28:23;;;;;;;50.30;8.27;;;;;;;;;;6242522;22;20028;-82
2023/03/26 03:30:52;;;;;;;43.88;7.70;;;;;;;;;;6242745;22;20103;-82
2023/03/26 03:33:19;;;;;;;46.53;8.05;;;;;;;;;;6267950;22;20488;-82
2023/03/26 03:35:47;;;;;;;40.25;7.30;;;;;;;;;;6268053;22;20028;-82
2023/03/26 03:38:15;;;;;;;52.05;8.20;;;;;;;;;;6267852;22;20028;-82
2023/03/26 03:40:41;;;;;;;42.63;8.68;;;;;;;;;;6268672;22;20030;-82
2023/03/26 03:43:07;;;;;;;43.58;8.90;;;;;;;;;;6268697;22;20038;-82
2023/03/26 03:45:34;;;;;;;39.58;8.43;;;;;;;;;;6241731;22;20024;-82
2023/03/26 03:48:00;;;;;;;51.30;8.77;;;;;;;;;;6240504;22;20035;-83
2023/03/26 03:50:27;;;;;;;42.15;8.38;;;;;;;;;;6268100;22;20024;-82
2023/03/26 03:52:54;;;;;;;42.63;8.63;;;;;;;;;;6267224;22;20106;-82
2023/03/26 03:55:22;;;;;;;53.63;8.15;;;;;;;;;;6241521;22;20028;-82
2023/03/26 03:57:51;;;;;;;41.13;7.45;;;;;;;;;;6266490;22;20020;-82
2023/03/26 04:00:17;;;;;;;48.67;7.65;;;;;;;;;;6268765;22;20031;-82
2023/03/26 04:02:45;;;;;;;37.35;7.57;;;;;;;;;;6241455;22;20102;-85
2023/03/26 04:05:11;;;;;;;43.97;8.35;;;;;;;;;;6266437;22;20024;-83
2023/03/26 04:07:38;;;;;;;44.42;8.07;;;;;;;;;;6267875;22;20028;-82
2023/03/26 04:10:06;;;;;;;37.58;6.32;;;;;;;;;;6266873;22;20032;-81
2023/03/26 04:12:33;;;;;;;45.08;8.10;;;;;;;;;;6268505;22;20365;-81
2023/03/26 04:14:59;;;;;;;37.95;7.35;;;;;;;;;;6267376;22;20024;-81
2023/03/26 04:17:25;;;;;;;31.45;6.68;;;;;;;;;;6267600;22;20320;-82
2023/03/26 04:19:53;;;;;;;35.72;7.80;;;;;;;;;;6267340;22;20028;-83
2023/03/26 04:22:20;;;;;;;42.85;7.20;;;;;;;;;;6268049;22;20067;-82
2023/03/26 04:24:48;;;;;;;29.92;7.47;;;;;;;;;;6266345;22;20046;-83
2023/03/26 04:27:20;;;;;;;38.38;8.02;;;;;;;;;;6267995;22;20016;-82
2023/03/26 04:29:49;;;;;;;32.30;7.40;;;;;;;;;;6267214;22;20114;-83
2023/03/26 04:32:25;;;;;;;38.70;9.18;;;;;;;;;;6267315;22;20036;-82
2023/03/26 04:34:53;;;;;;;40.78;8.20;;;;;;;;;;6240685;22;20020;-81
2023/03/26 04:37:27;;;;;;;40.75;7.82;;;;;;;;;;6265728;22;20031;-83
2023/03/26 04:39:54;;;;;;;48.67;8.05;;;;;;;;;;6241172;22;20031;-83
2023/03/26 04:42:20;;;;;;;39.33;8.27;;;;;;;;;;6240405;22;20051;-83
2023/03/26 04:44:49;;;;;;;37.95;8.23;;;;;;;;;;6266665;22;20056;-83
2023/03/26 04:47:19;;;;;;;48.42;9.15;;;;;;;;;;6266560;22;20078;-82
2023/03/26 04:49:46;;;;;;;39.08;8.75;;;;;;;;;;6266980;22;20039;-82
2023/03/26 04:52:13;;;;;;;38.50;8.23;;;;;;;;;;6267843;22;20028;-82
2023/03/26 04:54:41;;;;;;;41.00;8.00;;;;;;;;;;6266795;22;20055;-82
2023/03/26 04:57:12;;;;;;;34.22;9.23;;;;;;;;;;6266298;22;20035;-82
2023/03/26 04:59:40;;;;;;;44.60;8.40;;;;;;;;;;6268106;22;20059;-82
2023/03/26 05:02:08;;;;;;;45.88;9.70;;;;;;;;;;6266110;22;20058;-82
2023/03/26 05:04:38;;;;;;;36.80;8.98;;;;;;;;;;6266467;22;20027;-82
2023/03/26 05:07:05;;;;;;;41.97;8.88;;;;;;;;;;6266058;22;20028;-82
2023/03/26 05:09:31;;;;;;;46.90;8.95;;;;;;;;;;6267705;22;20028;-83
2023/03/26 05:11:58;;;;;;;43.67;9.13;;;;;;;;;;6266509;22;20020;-82
2023/03/26 05:14:24;;;;;;;46.13;8.27;;;;;;;;;;6265920;22;20460;-82
2023/03/26 05:16:52;;;;;;;42.33;8.68;;;;;;;;;;6266539;22;20024;-82
2023/03/26 05:19:18;;;;;;;38.00;9.60;;;;;;;;;;6239248;22;20024;-83
2023/03/26 05:21:45;;;;;;;57.00;9.38;;;;;;;;;;6266910;22;20024;-82
2023/03/26 05:24:11;;;;;;;33.25;8.45;;;;;;;;;;6266120;22;20859;-82
2023/03/26 05:26:37;;;;;;;39.97;8.75;;;;;;;;;;6265832;22;21043;-83
2023/03/26 05:29:04;;;;;;;31.55;7.95;;;;;;;;;;6266901;22;20078;-83
2023/03/26 05:31:30;;;;;;;52.65;8.68;;;;;;;;;;6266567;22;20086;-82
2023/03/26 05:33:59;;;;;;;51.80;9.70;;;;;;;;;;6265664;22;20024;-82
2023/03/26 05:36:27;;;;;;;45.90;8.30;;;;;;;;;;6266175;22;20107;-82
2023/03/26 05:38:53;;;;;;;43.10;9.15;;;;;;;;;;6266314;22;20569;-82
2023/03/26 05:41:20;;;;;;;31.85;8.07;;;;;;;;;;6266782;22;20024;-82
2023/03/26 05:43:47;;;;;;;37.47;9.43;;;;;;;;;;6239105;22;20027;-83
2023/03/26 05:46:14;;;;;;;47.03;8.07;;;;;;;;;;6271814;22;20031;-82
2023/03/26 05:48:41;;;;;;;41.88;10.02;;;;;;;;;;6272753;22;20018;-83
2023/03/26 05:51:07;;;;;;;37.78;8.23;;;;;;;;;;6247229;22;20568;-83
2023/03/26 05:53:33;;;;;;;39.53;8.73;;;;;;;;;;6274738;22;20066;-83
2023/03/26 05:56:00;;;;;;;37.30;8.40;;;;;;;;;;6244264;22;20095;-83
2023/03/26 05:58:28;;;;;;;40.90;7.90;;;;;;;;;;6274472;22;20075;-83
2023/03/26 06:00:58;;;;;;;34.38;7.60;;;;;;;;;;6248533;22;20020;-83
2023/03/26 06:03:25;;;;;;;41.78;8.00;;;;;;;;;;6273434;22;20457;-84
2023/03/26 06:05:51;;;;;;;42.10;8.23;;;;;;;;;;6274200;22;20138;-83
2023/03/26 06:08:19;;;;;;;47.10;8.77;;;;;;;;;;6247115;22;20044;-83
2023/03/26 06:10:45;;;;;;;37.97;9.15;;;;;;;;;;6273679;22;20807;-83
2023/03/26 06:13:12;;;;;;;39.65;8.55;;;;;;;;;;6272887;22;20020;-83
2023/03/26 06:15:38;;;;;;;36.20;9.93;;;;;;;;;;6272009;22;20635;-83
2023/03/26 06:18:05;;;;;;;45.22;9.00;;;;;;;;;;6273462;22;20028;-84
2023/03/26 06:20:31;;;;;;;57.53;8.90;;;;;;;;;;6270694;22;20031;-84
2023/03/26 06:22:58;;;;;;;39.90;8.73;;;;;;;;;;6270263;22;20138;-84
2023/03/26 06:25:24;;;;;;;41.45;8.05;;;;;;;;;;6270707;22;20028;-84
2023/03/26 06:27:50;;;;;;;36.83;7.15;;;;;;;;;;6271886;22;20035;-84
2023/03/26 06:30:17;;;;;;;36.45;7.72;;;;;;;;;;6271854;22;20112;-83
2023/03/26 06:32:43;;;;;;;26.38;6.43;;;;;;;;;;6269435;22;20024;-84
2023/03/26 06:35:10;;;;;;;36.17;6.78;;;;;;;;;;6268894;22;20054;-84
2023/03/26 06:37:36;;;;;;;45.97;8.05;;;;;;;;;;6244539;22;20085;-82
2023/03/26 06:40:03;;;;;;;41.03;6.68;;;;;;;;;;6269716;22;20093;-83
2023/03/26 06:42:29;;;;;;;40.55;6.70;;;;;;;;;;6272304;22;20492;-85
2023/03/26 06:45:16;;;;;;;31.45;6.03;;;;;;;;;;6270288;22;20028;-84
2023/03/26 06:47:42;;;;;;;31.30;6.10;;;;;;;;;;6270784;22;20075;-83
2023/03/26 06:50:10;;;;;;;36.15;6.03;;;;;;;;;;6277009;22;20420;-84
2023/03/26 06:52:37;;;;;;;33.33;5.15;;;;;;;;;;6243539;22;20063;-83
2023/03/26 06:55:05;;;;;;;41.45;5.57;;;;;;;;;;6269911;22;20016;-84
2023/03/26 06:57:31;;;;;;;31.60;6.45;;;;;;;;;;6271149;22;20024;-84
2023/03/26 06:59:58;;;;;;;34.22;6.82;;;;;;;;;;6269638;22;20024;-84
2023/03/26 07:02:24;;;;;;;34.08;6.20;;;;;;;;;;6243551;22;20095;-85
2023/03/26 07:04:51;;;;;;;27.83;6.78;;;;;;;;;;6242943;22;20473;-85
2023/03/26 07:07:20;;;;;;;34.63;5.20;;;;;;;;;;6243427;22;20024;-84
2023/03/26 07:09:47;;;;;;;30.52;6.22;;;;;;;;;;6244433;22;20087;-84
2023/03/26 07:12:13;;;;;;;26.50;5.57;;;;;;;;;;6271716;22;20027;-84
2023/03/26 07:14:40;;;;;;;34.17;6.75;;;;;;;;;;6270621;22;20008;-84
2023/03/26 07:17:06;;;;;;;33.97;6.07;;;;;;;;;;6271061;22;20488;-85
2023/03/26 07:19:32;;;;;;;32.10;5.63;;;;;;;;;;6272787;22;20086;-84
2023/03/26 07:21:59;;;;;;;36.72;6.35;;;;;;;;;;6269987;22;20032;-84
2023/03/26 07:24:26;;;;;;;38.58;6.75;;;;;;;;;;6242461;22;20035;-84
2023/03/26 07:27:05;;;;;;;36.45;6.85;;;;;;;;;;6269304;22;20051;-84
2023/03/26 07:29:52;;;;;;;25.23;5.60;;;;;;;;;;6271521;22;20028;-83
2023/03/26 07:32:30;;;;;;;27.73;6.25;;;;;;;;;;6242921;22;20071;-84
2023/03/26 07:35:06;;;;;;;41.38;7.05;;;;;;;;;;6270126;22;20048;-83
2023/03/26 07:37:51;;;;;;;29.33;5.75;;;;;;;;;;6244924;22;20044;-83
2023/03/26 07:40:36;;;;;;;32.72;6.47;;;;;;;;;;6270890;22;20016;-84
2023/03/26 07:43:25;;;;;;;25.63;6.15;;;;;;;;;;6271210;22;20073;-86
2023/03/26 07:45:52;;;;;;;32.78;6.20;;;;;;;;;;6273096;22;20883;-84
2023/03/26 07:48:24;;;;;;;34.35;6.30;;;;;;;;;;6271803;22;20016;-84
2023/03/26 07:50:50;;;;;;;32.22;6.72;;;;;;;;;;6271354;22;20088;-84
2023/03/26 07:53:17;;;;;;;29.13;6.72;;;;;;;;;;6270787;22;20024;-84
2023/03/26 07:56:02;;;;;;;36.80;7.40;;;;;;;;;;6243725;22;20054;-84
2023/03/26 07:58:39;;;;;;;29.77;5.93;;;;;;;;;;6272891;22;20016;-84
2023/03/26 08:01:26;;;;;;;35.05;6.32;;;;;;;;;;6244431;22;20066;-84
2023/03/26 08:04:01;;;;;;;31.25;5.82;;;;;;;;;;6219578;22;20115;-84
2023/03/26 08:06:53;;;;;;;32.58;5.75;;;;;;;;;;6248961;22;20017;-84
2023/03/26 08:09:27;;;;;;;34.55;6.90;;;;;;;;;;6271625;22;20016;-84
2023/03/26 08:11:57;;;;;;;35.60;6.53;;;;;;;;;;6271061;22;20028;-84
2023/03/26 08:14:47;;;;;;;33.43;6.63;;;;;;;;;;6270203;22;20016;-84
2023/03/26 08:17:32;;;;;;;31.13;7.22;;;;;;;;;;6244105;22;20472;-84
2023/03/26 08:20:19;;;;;;;28.27;6.88;;;;;;;;;;6270601;22;20365;-85
2023/03/26 08:22:49;;;;;;;36.80;7.78;;;;;;;;;;6268271;22;20031;-84
2023/03/26 08:25:33;;;;;;;37.03;7.80;;;;;;;;;;6270408;22;20034;-84
2023/03/26 08:28:07;;;;;;;32.45;7.85;;;;;;;;;;6267767;22;20469;-84
2023/03/26 08:30:34;;;;;;;24.52;7.40;;;;;;;;;;6271723;22;20079;-84
2023/03/26 08:33:10;;;;;;;37.22;7.85;;;;;;;;;;6269407;22;20140;-84
2023/03/26 08:35:41;;;;;;;25.35;6.80;;;;;;;;;;6268703;22;20024;-84
2023/03/26 08:38:07;;;;;;;;;;;;;;;;;;6270080;22;20527;-84
2023/03/26 08:41:00;;;;;;;40.03;7.35;;;;;;;;;;6267965;22;46664;-84
2023/03/26 08:43:30;;;;;;;27.83;6.68;;;;;;;;;;6270946;22;20020;-84
2023/03/26 08:46:05;;;;;;;40.55;7.15;;;;;;;;;;6270153;22;20067;-84
2023/03/26 08:48:50;;;;;;;36.22;7.85;;;;;;;;;;6269774;22;20020;-84
2023/03/26 08:51:39;;;;;;;34.22;9.27;;;;;;;;;;6266800;22;20028;-84
2023/03/26 08:54:21;;;;;;;36.83;7.82;;;;;;;;;;6268435;22;20032;-84
2023/03/26 08:56:53;;;;;;;37.17;9.05;;;;;;;;;;6270538;22;20373;-84
2023/03/26 08:59:20;;;;;;;29.55;7.68;;;;;;;;;;6269846;22;20024;-84
2023/03/26 09:01:52;;;;;;;31.60;8.70;;;;;;;;;;6271542;22;20012;-84
2023/03/26 09:04:38;;;;;;;39.92;8.90;;;;;;;;;;6269989;22;20024;-84
2023/03/26 09:07:05;;;;;;;27.73;7.82;;;;;;;;;;6271452;22;20034;-84
2023/03/26 09:09:51;;;;;;;45.15;9.00;;;;;;;;;;6267994;22;20074;-84
2023/03/26 09:12:17;;;;;;;36.42;9.15;;;;;;;;;;6270400;22;20491;-82
2023/03/26 09:14:58;;;;;;;31.83;8.75;;;;;;;;;;6266585;22;20067;-81
2023/03/26 09:17:45;;;;;;;37.92;9.73;;;;;;;;;;6270273;22;20109;-82
2023/03/26 09:20:11;;;;;;;36.45;9.52;;;;;;;;;;6267349;22;20028;-81
2023/03/26 09:22:47;;;;;;;38.75;10.32;;;;;;;;;;6269100;22;20087;-82
2023/03/26 09:25:40;;;;;;;33.95;9.68;;;;;;;;;;6273359;22;20088;-82
2023/03/26 09:28:20;;;;;;;42.63;11.38;;;;;;;;;;6274513;22;20024;-82
2023/03/26 09:30:59;;;;;;;46.05;13.43;;;;;;;;;;6272000;22;20028;-81
2023/03/26 09:33:32;;;;;;;51.72;13.82;;;;;;;;;;6273082;22;20532;-82
2023/03/26 09:36:17;;;;;;;45.88;13.77;;;;;;;;;;6272380;22;20064;-82
2023/03/26 09:38:43;;;;;;;43.50;12.48;;;;;;;;;;6273162;22;20059;-81
2023/03/26 09:41:14;;;;;;;40.13;13.43;;;;;;;;;;6272143;22;20024;-82
2023/03/26 09:43:40;;;;;;;;;;;;;;;;;;6271274;22;20058;-82
2023/03/26 09:46:24;;;;;;;39.53;12.27;;;;;;;;;;6270999;22;43377;-82
2023/03/26 09:49:06;;;;;;;43.75;12.18;;;;;;;;;;6271675;22;20488;-82
2023/03/26 09:51:57;;;;;;;43.15;13.27;;;;;;;;;;6271982;22;20016;-82
2023/03/26 09:54:26;;;;;;;42.28;13.48;;;;;;;;;;6271205;22;20020;-82
2023/03/26 09:57:07;;;;;;;30.30;12.02;;;;;;;;;;6272307;22;20456;-82
2023/03/26 10:00:00;;;;;;;32.60;11.90;;;;;;;;;;6271100;22;20058;-80
2023/03/26 10:02:37;;;;;;;33.58;12.50;;;;;;;;;;6236838;22;20493;-80
2023/03/26 10:05:25;;;;;;;29.50;11.85;;;;;;;;;;6273114;22;20095;-80
2023/03/26 10:07:55;;;;;;;37.05;11.93;;;;;;;;;;6271652;22;20029;-82
2023/03/26 10:10:29;;;;;;;39.10;11.75;;;;;;;;;;6271453;22;20078;-82
2023/03/26 10:13:02;;;;;;;31.58;11.77;;;;;;;;;;6269419;22;20035;-81
2023/03/26 10:16:06;;;;;;;33.85;12.57;;;;;;;;;;6273558;22;20039;-81
2023/03/26 10:18:47;;;;;;;34.67;10.65;;;;;;;;;;6269800;22;20015;-81
2023/03/26 10:21:32;;;;;;;37.08;11.63;;;;;;;;;;6272345;22;20901;-82
2023/03/26 10:23:59;;;;;;;32.03;11.45;;;;;;;;;;6270703;22;20479;-81
2023/03/26 10:26:51;;;;;;;40.30;11.27;;;;;;;;;;6271620;22;20492;-81
2023/03/26 10:29:42;;;;;;;28.20;10.40;;;;;;;;;;6272511;22;20024;-81
2023/03/26 10:32:21;;;;;;;31.33;10.10;;;;;;;;;;6271715;22;20020;-81
2023/03/26 10:35:06;;;;;;;28.02;9.13;;;;;;;;;;6243831;22;20056;-85
2023/03/26 10:37:33;;;;;;;21.17;7.88;;;;;;;;;;6274923;22;20016;-81
2023/03/26 10:40:18;;;;;;;23.17;8.02;;;;;;;;;;6275064;22;20008;-82
2023/03/26 10:43:03;;;;;;;19.42;8.05;;;;;;;;;;6272597;22;20728;-81
2023/03/26 10:45:43;;;;;;;20.30;7.15;;;;;;;;;;6247362;22;20104;-81
2023/03/26 10:48:10;;;;;;;23.58;6.70;;;;;;;;;;6274825;22;20895;-81
2023/03/26 10:50:45;;;;;;;19.55;7.20;;;;;;;;;;6247278;22;20032;-81
2023/03/26 10:53:27;;;;;;;22.42;7.05;;;;;;;;;;6273493;22;20050;-81
2023/03/26 10:55:55;;;;;;;23.35;6.93;;;;;;;;;;6271882;22;20039;-82
2023/03/26 10:58:28;;;;;;;20.90;6.50;;;;;;;;;;6247760;22;20082;-82
2023/03/26 11:01:21;;;;;;;20.65;6.97;;;;;;;;;;6274584;22;20179;-82
2023/03/26 11:03:54;;;;;;;18.10;5.55;;;;;;;;;;6247259;22;20078;-81
2023/03/26 11:06:22;;;;;;;18.30;6.95;;;;;;;;;;6273251;22;20098;-81
2023/03/26 11:08:55;;;;;;;21.40;6.20;;;;;;;;;;6245785;22;20915;-81
2023/03/26 11:11:35;;;;;;;15.82;5.88;;;;;;;;;;6273422;22;20047;-81
2023/03/26 11:14:12;;;;;;;21.47;6.13;;;;;;;;;;6273224;22;20023;-81
2023/03/26 11:16:59;;;;;;;13.32;5.32;;;;;;;;;;6274995;22;20618;-82
2023/03/26 11:19:29;;;;;;;14.45;5.68;;;;;;;;;;6275692;22;20024;-82
2023/03/26 11:21:55;;;;;;;12.35;5.40;;;;;;;;;;6276107;22;20020;-81
2023/03/26 11:24:27;;;;;;;21.15;5.60;;;;;;;;;;6245125;22;20028;-81
2023/03/26 11:26:57;;;;;;;16.35;6.10;;;;;;;;;;6259378;22;20320;-81
2023/03/26 11:29:45;;;;;;;20.40;4.93;;;;;;;;;;6272854;22;20803;-81
2023/03/26 11:32:12;;;;;;;17.52;4.57;;;;;;;;;;6272628;22;20028;-81
2023/03/26 11:34:46;;;;;;;19.67;4.97;;;;;;;;;;6271827;22;20020;-81
2023/03/26 11:37:17;;;;;;;21.35;4.95;;;;;;;;;;6271389;22;20060;-81
2023/03/26 11:39:49;;;;;;;16.98;4.35;;;;;;;;;;6272422;22;20960;-81
2023/03/26 11:42:18;;;;;;;17.52;5.00;;;;;;;;;;6272832;22;20110;-82
2023/03/26 11:45:01;;;;;;;24.48;4.70;;;;;;;;;;6271196;22;20035;-81
2023/03/26 11:47:34;;;;;;;16.45;3.72;;;;;;;;;;6271349;22;20031;-82
2023/03/26 11:50:02;;;;;;;18.10;4.78;;;;;;;;;;6272754;22;20032;-81
2023/03/26 11:52:28;;;;;;;15.55;4.13;;;;;;;;;;6271465;22;20079;-81
2023/03/26 11:54:57;;;;;;;19.77;3.95;;;;;;;;;;6270642;22;20054;-81
2023/03/26 11:57:29;;;;;;;14.45;4.57;;;;;;;;;;6270689;22;20028;-81
2023/03/26 11:59:58;;;;;;;15.02;4.15;;;;;;;;;;6268719;22;20024;-82
2023/03/26 12:02:32;;;;;;;19.27;4.50;;;;;;;;;;6270532;22;20020;-83
2023/03/26 12:05:25;;;;;;;15.10;4.35;;;;;;;;;;6269437;22;20008;-82
2023/03/26 12:07:53;;;;;;;23.50;4.57;;;;;;;;;;6256796;22;20023;-82
2023/03/26 12:10:36;;;;;;;22.05;4.57;;;;;;;;;;6273362;22;20032;-83
2023/03/26 12:13:23;;;;;;;19.63;3.95;;;;;;;;;;6269852;22;20115;-83
2023/03/26 12:15:49;;;;;;;21.15;4.43;;;;;;;;;;6273597;22;20028;-83
2023/03/26 12:18:23;;;;;;;17.15;4.68;;;;;;;;;;6273566;22;20123;-83
2023/03/26 12:21:00;;;;;;;16.08;3.88;;;;;;;;;;6272688;22;20029;-83
2023/03/26 12:23:45;;;;;;;19.73;4.15;;;;;;;;;;6273922;22;20111;-82
2023/03/26 12:26:17;;;;;;;13.75;3.97;;;;;;;;;;6272971;22;20733;-83
2023/03/26 12:28:45;;;;;;;21.40;4.05;;;;;;;;;;6245805;22;20473;-82
2023/03/26 12:31:16;;;;;;;17.52;4.25;;;;;;;;;;6273093;22;20469;-83
2023/03/26 12:34:01;;;;;;;17.90;4.10;;;;;;;;;;6274964;22;20099;-82
2023/03/26 12:36:29;;;;;;;17.73;4.95;;;;;;;;;;6273874;22;20135;-83
2023/03/26 12:38:56;;;;;;;15.27;4.20;;;;;;;;;;6247473;22;20028;-81
2023/03/26 12:41:42;;;;;;;16.20;4.03;;;;;;;;;;6274592;22;20523;-82
2023/03/26 12:44:29;;;;;;;18.85;4.22;;;;;;;;;;6276232;22;20024;-82
2023/03/26 12:47:35;;;;;;;17.35;3.88;;;;;;;;;;6252091;22;20252;-83
2023/03/26 12:50:25;;;;;;;14.63;3.70;;;;;;;;;;6274425;22;20032;-83
2023/03/26 12:53:22;;;;;;;13.07;3.50;;;;;;;;;;6274916;22;20020;-83
2023/03/26 12:55:49;;;;;;;11.60;3.10;;;;;;;;;;6247049;22;20024;-83
2023/03/26 12:58:24;;;;;;;10.75;2.63;;;;;;;;;;6247019;22;20028;-82
2023/03/26 13:00:57;;;;;;;16.70;2.80;;;;;;;;;;6272956;22;20024;-82
2023/03/26 13:03:36;;;;;;;10.98;2.80;;;;;;;;;;6250028;22;20024;-83
2023/03/26 13:06:08;;;;;;;14.48;2.63;;;;;;;;;;6248785;22;20024;-83
2023/03/26 13:08:45;;;;;;;14.13;2.58;;;;;;;;;;6275843;22;20076;-83
2023/03/26 13:11:37;;;;;;;10.68;2.20;;;;;;;;;;6247690;22;20051;-83
2023/03/26 13:14:20;;;;;;;19.55;2.67;;;;;;;;;;6247987;22;20047;-83
2023/03/26 13:16:46;;;;;;;14.52;2.40;;;;;;;;;;6274879;22;20509;-83
2023/03/26 13:19:16;;;;;;;10.95;2.50;;;;;;;;;;6247364;22;20768;-84
2023/03/26 13:21:58;;;;;;;13.25;2.85;;;;;;;;;;6274282;22;20107;-83
2023/03/26 13:24:43;;;;;;;23.55;2.78;;;;;;;;;;6274422;22;20024;-83
2023/03/26 13:27:15;;;;;;;15.60;2.50;;;;;;;;;;6273227;22;20504;-82
2023/03/26 13:29:55;;;;;;;12.93;2.05;;;;;;;;;;6245038;22;20107;-83
2023/03/26 13:32:34;;;;;;;12.77;1.98;;;;;;;;;;6273779;22;20595;-83
2023/03/26 13:35:28;;;;;;;17.90;2.92;;;;;;;;;;6272508;22;20105;-83
2023/03/26 13:38:14;;;;;;;14.25;2.25;;;;;;;;;;6272397;22;20024;-83
2023/03/26 13:40:43;;;;;;;11.95;2.28;;;;;;;;;;6272274;22;20111;-84
2023/03/26 13:43:22;;;;;;;10.63;1.90;;;;;;;;;;6272556;22;20024;-84
2023/03/26 13:45:53;;;;;;;13.07;2.40;;;;;;;;;;6244965;22;20028;-83
2023/03/26 13:48:25;;;;;;;18.83;2.80;;;;;;;;;;6272978;22;20030;-84
2023/03/26 13:50:58;;;;;;;14.68;2.85;;;;;;;;;;6272101;22;20028;-83
2023/03/26 13:53:27;;;;;;;11.65;1.98;;;;;;;;;;6244064;22;20044;-82
2023/03/26 13:55:57;;;;;;;11.02;2.13;;;;;;;;;;6272377;22;20032;-84
2023/03/26 13:58:27;;;;;;;9.77;2.17;;;;;;;;;;6272796;22;20032;-83
2023/03/26 14:01:08;;;;;;;15.85;2.70;;;;;;;;;;6272261;22;20020;-84
2023/03/26 14:03:34;;;;;;;15.13;1.80;;;;;;;;;;6272655;22;20469;-83
2023/03/26 14:06:05;;;;;;;10.10;1.90;;;;;;;;;;6272048;22;20027;-82
2023/03/26 14:08:41;;;;;;;10.60;1.90;;;;;;;;;;6273610;22;20056;-83
2023/03/26 14:11:10;;;;;;;7.80;1.90;;;;;;;;;;6272277;22;20038;-82
2023/03/26 14:13:55;;;;;;;13.32;2.25;;;;;;;;;;6271766;22;20035;-82
2023/03/26 14:16:27;;;;;;;11.95;2.15;;;;;;;;;;6271971;22;20052;-82
2023/03/26 14:18:59;;;;;;;13.07;2.13;;;;;;;;;;6272253;22;20804;-83
2023/03/26 14:21:41;;;;;;;13.93;1.90;;;;;;;;;;6273988;22;20024;-84
2023/03/26 14:24:26;;;;;;;13.15;2.10;;;;;;;;;;6244837;22;20016;-83
2023/03/26 14:26:53;;;;;;;9.95;2.00;;;;;;;;;;6271103;22;20454;-83
2023/03/26 14:29:30;;;;;;;14.82;2.17;;;;;;;;;;6272968;22;20035;-84
2023/03/26 14:32:08;;;;;;;7.07;1.90;;;;;;;;;;6271234;22;20044;-82
2023/03/26 14:34:41;;;;;;;11.52;1.77;;;;;;;;;;6243920;22;20099;-82
2023/03/26 14:37:19;;;;;;;9.50;1.65;;;;;;;;;;6243635;22;20570;-84
2023/03/26 14:40:13;;;;;;;7.43;1.38;;;;;;;;;;6271340;22;20027;-82
2023/03/26 14:42:42;;;;;;;8.65;2.40;;;;;;;;;;6272653;22;20495;-83
2023/03/26 14:45:27;;;;;;;12.63;1.88;;;;;;;;;;6270907;22;20024;-82
2023/03/26 14:47:56;;;;;;;6.97;1.75;;;;;;;;;;6273027;22;20055;-83
2023/03/26 14:50:45;;;;;;;10.60;1.98;;;;;;;;;;6244813;22;20059;-82
2023/03/26 14:53:24;;;;;;;9.55;1.65;;;;;;;;;;6270526;22;20028;-82
2023/03/26 14:56:02;;;;;;;8.57;1.45;;;;;;;;;;6243663;22;20024;-83
2023/03/26 14:58:41;;;;;;;18.67;1.83;;;;;;;;;;6272206;22;20101;-83
2023/03/26 15:01:17;;;;;;;14.00;1.90;;;;;;;;;;6270864;22;20600;-83
2023/03/26 15:03:52;;;;;;;8.70;1.60;;;;;;;;;;6244758;22;20024;-83